Portada
METAR-TAF:

METAR-TAF

Aeroports :

Sanya, Xina

latitud: 18-18N, longitud: 109-24E, altitud: 27 m

Observació

L'informe es va fer fa 1 hora i 4 minuts, a les 17:00 UTC
Vent 6 kt del Nord-Est, variant entre Nord i Est/Nord-Est
Temperatura 22°C
Humitat 78%
Pressió 1016 hPa
Visibilitat 10 km o més
Escasses núvols a una alçada de 5000 ft

METAR: ZJSY 221700Z 05003MPS 010V070 9999 FEW050 22/18 Q1016 NOSIG

Hora: 02:04 (18:04 UTC)

Pronòstic

L'informe es va fer fa 3 hores i 3 minuts, a les 15:01 UTC
Pronòstic vàlid del 22 a les 18 UTC al 23 a les 18 UTC
Vent 8 kt del Est
Visibilitat 10 km o més
Escasses núvols a una alçada de 2000 ft

TAF: ZJSY 221501Z 2218/2318 09004MPS 9999 FEW020 TX30/2306Z TN20/2221Z

Observacions i pronòstics meteorològics de més de 4000 aeroports (METAR i TAF).

Les estacions disponibles són els punts grocs i vermells al mapa.

Posi el ratolí al punt desitjat per veure el nom de l'estació.

Feu clic per veure les observacions i els pronòstics meteorològics.

Per canviar el mapa: feu clic els botons verds amb una creu de color negre per apropar; al botó verd amb un guió per allunyar la imatge; o en les fletxes verdes per a mapes adjacents.


METAR-TAF: